Pagrindinis puslapis
METAR-TAF:

METAR-TAF

Oro uostai :

Kuveitas, Kuveitas

platuma: 29-13N, ilguma: 047-59E, Aukštis: 55 m

Dabartinis oras

Ataskaita buvo paskelbta 58 minutes, ne 23:00 UTC
Vėjas 12 kt iš Pietų
Temperatūra 25°C
Drėgmė 54%
Slėgis 1005 hPa
Matomumas: 6000 m
Mažai debesys ne aukštis 4000 ft
Išsisklaidę debesys ne aukštis 8000 ft

METAR: OKBK 072300Z 19012KT 6000 FEW040 SCT080 25/15 Q1005 NOSIG

Laikas: 02:58 (23:58 UTC)

Prognozė

Ataskaita buvo paskelbta 1 valandą ir 13 minutes, ne 22:45 UTC
Prognozė galioja nuo 08 metu 00 UTC su 09 metu 06 UTC
Vėjas 10 kt iš Rytų/Pietryčių su gūsio iki 22 kt
Matomumas: 6000 m
Išsisklaidę debesys ne aukštis 4000 ft
Su prošvaistėmis ne aukštis 8000 ft
Laikinai
nuo 08 metu 00 UTC su 08 metu 06 UTC
Matomumas: 3000 m
Mažai debesys ne aukštis 3000 ft, Liūtiniai kamuoliniai debesys.

TAF: OKBK 072245Z 0800/0906 12010G22KT 6000 SCT040 BKN080 TEMPO 0800/0806 3000 TSRA/BLDU FEW030CB

Orai ataskaitas ir orų prognozės (METAR, TAF).

turimą stotys yra geltonos ir raudonos taškus žemėlapyje.

Perkelti pele per norėdami pamatyti stoties vardą.

Tada spustelėkite, norėdami matyti oro stebėjimo ir prognozės.

Norėdami pakeisti žemėlapį: spustelėkite ant žalios mygtukų su juodo kryžiaus žemyn,; žalią mygtuką su brūkšneliu, jei norite nutolinti; arba žalių rodyklių gretimoms žemėlapius.


METAR-TAF: